Time;durP1;ratioP1;P1;durP2;ratioP2;P2;SDS_P1;SDS_P2;PMS_P1;PMS_P2;Temp;Humidity;BMP_temperature;BMP_pressure;BME280_temperature;BME280_humidity;BME280_pressure;Samples;Min_cycle;Max_cycle;Signal;HPM_P1;HPM_P2
2023/04/24 00:01:00;;;;;;;0.30;0.30;;;;;;;;;;7392166;19;20141;-84
2023/04/24 00:03:28;;;;;;;0.30;0.30;;;;;;;;;;7392042;19;20210;-87
2023/04/24 00:05:56;;;;;;;0.30;0.30;;;;;;;;;;7396503;19;20137;-84
2023/04/24 00:08:23;;;;;;;0.30;0.30;;;;;;;;;;7391679;19;20136;-84
2023/04/24 00:10:51;;;;;;;0.40;0.40;;;;;;;;;;7392618;19;20169;-86
2023/04/24 00:13:18;;;;;;;0.20;0.20;;;;;;;;;;7403287;19;20161;-88
2023/04/24 00:15:45;;;;;;;0.30;0.30;;;;;;;;;;7425070;19;20125;-88
2023/04/24 00:18:11;;;;;;;0.40;0.40;;;;;;;;;;7426174;19;20151;-89
2023/04/24 00:20:39;;;;;;;0.30;0.30;;;;;;;;;;7425056;19;20125;-89
2023/04/24 00:23:06;;;;;;;0.30;0.30;;;;;;;;;;7424418;19;20161;-88
2023/04/24 00:25:32;;;;;;;0.30;0.30;;;;;;;;;;7421053;19;20134;-89
2023/04/24 00:27:59;;;;;;;0.30;0.30;;;;;;;;;;7425107;19;20125;-89
2023/04/24 00:30:26;;;;;;;0.30;0.30;;;;;;;;;;7425766;19;20125;-88
2023/04/24 00:32:52;;;;;;;0.30;0.30;;;;;;;;;;7416849;19;20137;-84
2023/04/24 00:35:19;;;;;;;0.30;0.30;;;;;;;;;;7395964;19;20216;-86
2023/04/24 00:37:46;;;;;;;0.30;0.30;;;;;;;;;;7395592;19;20129;-84
2023/04/24 00:40:13;;;;;;;0.30;0.30;;;;;;;;;;7394183;19;20578;-84
2023/04/24 00:42:40;;;;;;;0.30;0.30;;;;;;;;;;7395150;19;20133;-86
2023/04/24 00:45:07;;;;;;;0.30;0.30;;;;;;;;;;7395598;19;20137;-84
2023/04/24 00:47:34;;;;;;;0.30;0.30;;;;;;;;;;7391939;19;20137;-87
2023/04/24 00:50:05;;;;;;;0.20;0.20;;;;;;;;;;7396233;19;20137;-84
2023/04/24 00:52:32;;;;;;;0.30;0.30;;;;;;;;;;7397134;19;20136;-84
2023/04/24 00:54:59;;;;;;;0.30;0.30;;;;;;;;;;7391750;19;20172;-84
2023/04/24 00:57:26;;;;;;;0.30;0.30;;;;;;;;;;7395722;19;20133;-85
2023/04/24 00:59:53;;;;;;;0.30;0.30;;;;;;;;;;7393874;19;20150;-84
2023/04/24 01:02:21;;;;;;;0.40;0.40;;;;;;;;;;7392733;19;20141;-84
2023/04/24 01:04:49;;;;;;;0.30;0.30;;;;;;;;;;7391216;19;20164;-85
2023/04/24 01:07:18;;;;;;;0.30;0.30;;;;;;;;;;7395568;19;20141;-84
2023/04/24 01:09:47;;;;;;;0.40;0.40;;;;;;;;;;7394488;19;20121;-85
2023/04/24 01:12:14;;;;;;;0.30;0.30;;;;;;;;;;7394699;19;20129;-87
2023/04/24 01:14:41;;;;;;;0.30;0.30;;;;;;;;;;7392313;19;20647;-84
2023/04/24 01:17:09;;;;;;;0.30;0.30;;;;;;;;;;7393363;19;20217;-84
2023/04/24 01:19:35;;;;;;;0.30;0.30;;;;;;;;;;7391349;19;20527;-84
2023/04/24 01:22:02;;;;;;;0.30;0.30;;;;;;;;;;7390370;19;20145;-85
2023/04/24 01:24:29;;;;;;;0.20;0.20;;;;;;;;;;7388939;19;20141;-85
2023/04/24 01:26:56;;;;;;;0.30;0.30;;;;;;;;;;7392588;19;20137;-85
2023/04/24 01:29:23;;;;;;;0.30;0.30;;;;;;;;;;7393855;19;20145;-86
2023/04/24 01:31:50;;;;;;;0.30;0.30;;;;;;;;;;7395268;19;20474;-84
2023/04/24 01:34:17;;;;;;;0.30;0.30;;;;;;;;;;7393519;19;20172;-84
2023/04/24 01:36:45;;;;;;;0.40;0.40;;;;;;;;;;7392823;19;20137;-85
2023/04/24 01:39:12;;;;;;;0.40;0.40;;;;;;;;;;7394355;19;20154;-83
2023/04/24 01:41:39;;;;;;;0.30;0.30;;;;;;;;;;7388705;19;20136;-87
2023/04/24 01:44:06;;;;;;;0.30;0.30;;;;;;;;;;7388400;19;20141;-84
2023/04/24 01:46:34;;;;;;;0.30;0.30;;;;;;;;;;7391188;19;20177;-87
2023/04/24 01:49:01;;;;;;;0.30;0.30;;;;;;;;;;7391039;19;20157;-84
2023/04/24 01:51:28;;;;;;;0.30;0.30;;;;;;;;;;7392771;19;20137;-85
2023/04/24 01:53:55;;;;;;;0.30;0.30;;;;;;;;;;7391757;19;20164;-86
2023/04/24 01:56:22;;;;;;;0.30;0.30;;;;;;;;;;7391084;19;20586;-84
2023/04/24 01:58:50;;;;;;;0.20;0.20;;;;;;;;;;7394061;19;20129;-84
2023/04/24 02:01:20;;;;;;;0.30;0.30;;;;;;;;;;7392788;19;20730;-84
2023/04/24 02:03:47;;;;;;;0.30;0.30;;;;;;;;;;7391642;19;20169;-87
2023/04/24 02:06:14;;;;;;;0.30;0.30;;;;;;;;;;7391571;19;20147;-84
2023/04/24 02:08:40;;;;;;;0.30;0.30;;;;;;;;;;7393083;19;20156;-87
2023/04/24 02:11:09;;;;;;;0.30;0.30;;;;;;;;;;7394598;19;20624;-86
2023/04/24 02:13:36;;;;;;;0.30;0.30;;;;;;;;;;7393253;19;20193;-85
2023/04/24 02:16:03;;;;;;;0.33;0.33;;;;;;;;;;7392409;19;20140;-84
2023/04/24 02:18:30;;;;;;;0.30;0.30;;;;;;;;;;7392922;19;20165;-86
2023/04/24 02:20:56;;;;;;;0.30;0.30;;;;;;;;;;7394580;19;20133;-84
2023/04/24 02:23:23;;;;;;;0.30;0.30;;;;;;;;;;7395876;19;20176;-85
2023/04/24 02:25:49;;;;;;;0.30;0.30;;;;;;;;;;7413407;19;20165;-86
2023/04/24 02:28:16;;;;;;;0.30;0.30;;;;;;;;;;7396915;19;20133;-85
2023/04/24 02:30:43;;;;;;;0.30;0.30;;;;;;;;;;7397547;19;20153;-86
2023/04/24 02:33:09;;;;;;;0.30;0.30;;;;;;;;;;7395391;19;20173;-89
2023/04/24 02:35:36;;;;;;;0.30;0.30;;;;;;;;;;7404383;19;20145;-86
2023/04/24 02:38:03;;;;;;;0.40;0.40;;;;;;;;;;7404210;19;20600;-85
2023/04/24 02:40:30;;;;;;;0.30;0.30;;;;;;;;;;7400678;19;20133;-84
2023/04/24 02:42:56;;;;;;;0.30;0.30;;;;;;;;;;7399547;19;20167;-85
2023/04/24 02:45:23;;;;;;;0.30;0.30;;;;;;;;;;7402103;19;20140;-85
2023/04/24 02:47:49;;;;;;;0.30;0.30;;;;;;;;;;7402361;19;20141;-83
2023/04/24 02:50:16;;;;;;;0.30;0.30;;;;;;;;;;7396085;19;20157;-84
2023/04/24 02:52:43;;;;;;;0.30;0.30;;;;;;;;;;7399243;19;20137;-84
2023/04/24 02:55:09;;;;;;;0.30;0.30;;;;;;;;;;7399112;19;20133;-85
2023/04/24 02:57:36;;;;;;;0.30;0.30;;;;;;;;;;7403611;19;20153;-85
2023/04/24 03:00:06;;;;;;;0.30;0.30;;;;;;;;;;7399104;19;20141;-84
2023/04/24 03:02:33;;;;;;;0.30;0.30;;;;;;;;;;7401966;19;20141;-85
2023/04/24 03:05:02;;;;;;;0.30;0.30;;;;;;;;;;7397261;19;20243;-87
2023/04/24 03:07:28;;;;;;;0.30;0.30;;;;;;;;;;7400818;19;20129;-84
2023/04/24 03:09:55;;;;;;;0.30;0.30;;;;;;;;;;7399522;19;20528;-84
2023/04/24 03:12:23;;;;;;;0.37;0.37;;;;;;;;;;7400814;19;20521;-84
2023/04/24 03:14:50;;;;;;;0.30;0.30;;;;;;;;;;7396872;19;20153;-84
2023/04/24 03:17:16;;;;;;;0.30;0.30;;;;;;;;;;7400335;19;20751;-84
2023/04/24 03:19:43;;;;;;;0.30;0.30;;;;;;;;;;7397687;19;20136;-84
2023/04/24 03:22:12;;;;;;;0.30;0.30;;;;;;;;;;7399171;19;20158;-84
2023/04/24 03:24:38;;;;;;;0.40;0.40;;;;;;;;;;7396374;19;20173;-85
2023/04/24 03:27:05;;;;;;;0.30;0.30;;;;;;;;;;7399835;19;20162;-84
2023/04/24 03:29:31;;;;;;;0.20;0.20;;;;;;;;;;7399587;19;20145;-85
2023/04/24 03:31:58;;;;;;;0.30;0.30;;;;;;;;;;7399665;19;20141;-86
2023/04/24 03:34:25;;;;;;;0.30;0.30;;;;;;;;;;7396697;19;20164;-85
2023/04/24 03:36:52;;;;;;;0.30;0.30;;;;;;;;;;7399573;19;20125;-84
2023/04/24 03:39:19;;;;;;;0.30;0.30;;;;;;;;;;7397836;19;20477;-84
2023/04/24 03:41:45;;;;;;;0.30;0.30;;;;;;;;;;7398377;19;20137;-86
2023/04/24 03:44:12;;;;;;;0.30;0.30;;;;;;;;;;7396771;19;20160;-84
2023/04/24 03:46:38;;;;;;;0.30;0.30;;;;;;;;;;7397323;19;20496;-85
2023/04/24 03:49:05;;;;;;;0.30;0.30;;;;;;;;;;7398122;19;20550;-84
2023/04/24 03:51:32;;;;;;;0.30;0.30;;;;;;;;;;7398370;19;20630;-85
2023/04/24 03:53:58;;;;;;;0.30;0.30;;;;;;;;;;7396287;19;20199;-84
2023/04/24 03:56:25;;;;;;;0.30;0.30;;;;;;;;;;7399582;19;20129;-88
2023/04/24 03:58:52;;;;;;;0.30;0.30;;;;;;;;;;7398272;19;20133;-86
2023/04/24 04:01:20;;;;;;;0.30;0.30;;;;;;;;;;7395771;19;20473;-85
2023/04/24 04:03:47;;;;;;;0.30;0.30;;;;;;;;;;7397514;19;20140;-85
2023/04/24 04:06:14;;;;;;;0.30;0.30;;;;;;;;;;7398584;19;20137;-84
2023/04/24 04:08:41;;;;;;;0.30;0.30;;;;;;;;;;7397774;19;20166;-84
2023/04/24 04:11:07;;;;;;;0.30;0.30;;;;;;;;;;7397950;19;20208;-84
2023/04/24 04:13:34;;;;;;;0.30;0.30;;;;;;;;;;7397874;19;20157;-84
2023/04/24 04:16:00;;;;;;;0.30;0.30;;;;;;;;;;7398148;19;20249;-85
2023/04/24 04:18:27;;;;;;;0.30;0.30;;;;;;;;;;7396893;19;20133;-84
2023/04/24 04:20:54;;;;;;;0.30;0.30;;;;;;;;;;7394697;19;20118;-84
2023/04/24 04:23:20;;;;;;;0.40;0.40;;;;;;;;;;7403119;19;20194;-86
2023/04/24 04:25:47;;;;;;;0.30;0.30;;;;;;;;;;7410665;19;20145;-86
2023/04/24 04:28:15;;;;;;;0.30;0.30;;;;;;;;;;7399469;19;20159;-86
2023/04/24 04:30:42;;;;;;;0.30;0.30;;;;;;;;;;7398974;19;20166;-84
2023/04/24 04:33:10;;;;;;;0.30;0.30;;;;;;;;;;7398255;19;20170;-84
2023/04/24 04:35:36;;;;;;;0.30;0.30;;;;;;;;;;7396311;19;20125;-83
2023/04/24 04:38:04;;;;;;;0.30;0.30;;;;;;;;;;7398439;19;20133;-85
2023/04/24 04:40:31;;;;;;;0.30;0.30;;;;;;;;;;7395805;19;20166;-88
2023/04/24 04:42:58;;;;;;;0.30;0.30;;;;;;;;;;7398426;19;20136;-86
2023/04/24 04:45:26;;;;;;;0.37;0.37;;;;;;;;;;7397691;19;20129;-87
2023/04/24 04:47:54;;;;;;;0.30;0.30;;;;;;;;;;7396962;19;20185;-84
2023/04/24 04:50:22;;;;;;;0.30;0.30;;;;;;;;;;7398733;19;20165;-87
2023/04/24 04:52:49;;;;;;;0.40;0.40;;;;;;;;;;7397003;19;20622;-88
2023/04/24 04:55:15;;;;;;;0.30;0.30;;;;;;;;;;7397091;19;20162;-84
2023/04/24 04:57:42;;;;;;;0.30;0.30;;;;;;;;;;7395899;19;20133;-84
2023/04/24 05:00:10;;;;;;;0.30;0.30;;;;;;;;;;7396786;19;20165;-86
2023/04/24 05:02:38;;;;;;;0.30;0.30;;;;;;;;;;7397904;19;20587;-85
2023/04/24 05:05:06;;;;;;;0.30;0.30;;;;;;;;;;7397411;19;20141;-87
2023/04/24 05:07:33;;;;;;;0.30;0.30;;;;;;;;;;7397914;19;20145;-83
2023/04/24 05:09:59;;;;;;;0.30;0.30;;;;;;;;;;7397659;19;20137;-86
2023/04/24 05:12:26;;;;;;;0.30;0.30;;;;;;;;;;7396016;19;20133;-86
2023/04/24 05:14:53;;;;;;;0.40;0.40;;;;;;;;;;7395201;19;20145;-86
2023/04/24 05:17:20;;;;;;;0.30;0.30;;;;;;;;;;7397089;19;20502;-87
2023/04/24 05:19:47;;;;;;;0.30;0.30;;;;;;;;;;7395103;19;20141;-89
2023/04/24 05:22:14;;;;;;;0.30;0.30;;;;;;;;;;7393544;19;20139;-89
2023/04/24 05:24:41;;;;;;;0.30;0.30;;;;;;;;;;7392880;19;20183;-85
2023/04/24 05:27:08;;;;;;;0.30;0.30;;;;;;;;;;7397440;19;20132;-85
2023/04/24 05:29:34;;;;;;;0.30;0.30;;;;;;;;;;7393115;19;20137;-85
2023/04/24 05:32:01;;;;;;;0.37;0.37;;;;;;;;;;7394854;19;20166;-87
2023/04/24 05:34:28;;;;;;;0.30;0.30;;;;;;;;;;7393175;19;20157;-91
2023/04/24 05:36:54;;;;;;;0.30;0.30;;;;;;;;;;7395651;19;20136;-87
2023/04/24 05:39:21;;;;;;;0.20;0.20;;;;;;;;;;7395090;19;20137;-84
2023/04/24 05:41:48;;;;;;;0.30;0.30;;;;;;;;;;7392522;19;20142;-85
2023/04/24 05:44:14;;;;;;;0.30;0.30;;;;;;;;;;7391548;19;20197;-87
2023/04/24 05:46:41;;;;;;;0.30;0.30;;;;;;;;;;7394195;19;20150;-84
2023/04/24 05:49:08;;;;;;;0.30;0.30;;;;;;;;;;7394635;19;20128;-83
2023/04/24 05:51:35;;;;;;;0.30;0.30;;;;;;;;;;7395784;19;20507;-85
2023/04/24 05:54:02;;;;;;;0.37;0.37;;;;;;;;;;7392590;19;20185;-83
2023/04/24 05:56:29;;;;;;;0.30;0.30;;;;;;;;;;7393379;19;20184;-84
2023/04/24 05:58:56;;;;;;;0.40;0.40;;;;;;;;;;7394089;19;20125;-84
2023/04/24 06:01:23;;;;;;;0.30;0.30;;;;;;;;;;7392633;19;20133;-83
2023/04/24 06:03:49;;;;;;;0.30;0.30;;;;;;;;;;7393882;19;20192;-83
2023/04/24 06:06:17;;;;;;;0.30;0.30;;;;;;;;;;7394193;19;20505;-83
2023/04/24 06:08:45;;;;;;;0.50;0.50;;;;;;;;;;7394296;19;20153;-83
2023/04/24 06:11:11;;;;;;;0.30;0.30;;;;;;;;;;7394448;19;20133;-83
2023/04/24 06:13:38;;;;;;;0.30;0.30;;;;;;;;;;7392022;19;20193;-85
2023/04/24 06:16:05;;;;;;;0.30;0.30;;;;;;;;;;7393280;19;20671;-83
2023/04/24 06:18:31;;;;;;;0.30;0.30;;;;;;;;;;7394493;19;20475;-83
2023/04/24 06:20:58;;;;;;;0.30;0.30;;;;;;;;;;7395169;19;20154;-83
2023/04/24 06:23:25;;;;;;;0.30;0.30;;;;;;;;;;7402733;19;20172;-85
2023/04/24 06:25:51;;;;;;;0.30;0.30;;;;;;;;;;7404283;19;20144;-84
2023/04/24 06:28:18;;;;;;;0.30;0.30;;;;;;;;;;7395546;19;20133;-83
2023/04/24 06:30:45;;;;;;;0.30;0.30;;;;;;;;;;7392392;19;20661;-85
2023/04/24 06:33:11;;;;;;;0.30;0.30;;;;;;;;;;7394035;19;20182;-85
2023/04/24 06:35:47;;;;;;;0.30;0.30;;;;;;;;;;7394111;19;20593;-84
2023/04/24 06:38:14;;;;;;;0.30;0.30;;;;;;;;;;7391796;19;20201;-85
2023/04/24 06:40:40;;;;;;;0.50;0.50;;;;;;;;;;7393885;19;20137;-83
2023/04/24 06:43:07;;;;;;;0.30;0.30;;;;;;;;;;7394377;19;20148;-84
2023/04/24 06:45:33;;;;;;;0.30;0.30;;;;;;;;;;7393887;19;20337;-84
2023/04/24 06:48:00;;;;;;;0.30;0.30;;;;;;;;;;7396292;19;20141;-85
2023/04/24 06:50:27;;;;;;;0.30;0.30;;;;;;;;;;7395244;19;20147;-84
2023/04/24 06:52:54;;;;;;;0.30;0.30;;;;;;;;;;7392742;19;20630;-84
2023/04/24 06:55:28;;;;;;;0.50;0.50;;;;;;;;;;7395382;19;20144;-85
2023/04/24 06:57:55;;;;;;;0.30;0.30;;;;;;;;;;7393824;19;20147;-84
2023/04/24 07:00:24;;;;;;;0.30;0.30;;;;;;;;;;7394532;19;20125;-87
2023/04/24 07:02:50;;;;;;;0.30;0.30;;;;;;;;;;7393947;19;20158;-85
2023/04/24 07:05:19;;;;;;;0.30;0.30;;;;;;;;;;7394356;19;20144;-84
2023/04/24 07:07:47;;;;;;;0.40;0.40;;;;;;;;;;7394806;19;20141;-84
2023/04/24 07:10:14;;;;;;;0.30;0.30;;;;;;;;;;7392184;19;20129;-85
2023/04/24 07:12:40;;;;;;;0.30;0.30;;;;;;;;;;7393893;19;20168;-85
2023/04/24 07:15:08;;;;;;;0.30;0.30;;;;;;;;;;7393921;19;20549;-85
2023/04/24 07:17:35;;;;;;;0.60;0.60;;;;;;;;;;7391096;19;20503;-84
2023/04/24 07:20:01;;;;;;;0.63;0.63;;;;;;;;;;7394110;19;20602;-85
2023/04/24 07:22:28;;;;;;;0.30;0.30;;;;;;;;;;7399040;19;20646;-85
2023/04/24 07:24:55;;;;;;;0.30;0.30;;;;;;;;;;7398634;19;20141;-85
2023/04/24 07:27:21;;;;;;;0.30;0.30;;;;;;;;;;7400288;19;20133;-84
2023/04/24 07:29:48;;;;;;;0.30;0.30;;;;;;;;;;7400469;19;20129;-85
2023/04/24 07:32:15;;;;;;;0.30;0.30;;;;;;;;;;7402588;19;20265;-86
2023/04/24 07:34:41;;;;;;;0.30;0.30;;;;;;;;;;7399905;19;20172;-85
2023/04/24 07:37:08;;;;;;;0.30;0.30;;;;;;;;;;7401518;19;20602;-85
2023/04/24 07:39:37;;;;;;;0.40;0.40;;;;;;;;;;7401448;19;20141;-87
2023/04/24 07:42:06;;;;;;;0.23;0.23;;;;;;;;;;7400070;19;20495;-86
2023/04/24 07:44:32;;;;;;;0.30;0.30;;;;;;;;;;7398143;19;20157;-84
2023/04/24 07:46:59;;;;;;;0.30;0.30;;;;;;;;;;7402015;19;20129;-84
2023/04/24 07:49:27;;;;;;;0.30;0.30;;;;;;;;;;7402399;19;20165;-85
2023/04/24 07:51:54;;;;;;;0.40;0.40;;;;;;;;;;7401155;19;20166;-85
2023/04/24 07:54:20;;;;;;;0.40;0.40;;;;;;;;;;7401249;19;20173;-84
2023/04/24 07:56:48;;;;;;;0.30;0.30;;;;;;;;;;7400643;19;20181;-85
2023/04/24 07:59:14;;;;;;;2.40;1.60;;;;;;;;;;7400734;19;20165;-86
2023/04/24 08:01:41;;;;;;;0.47;0.47;;;;;;;;;;7396546;19;20141;-88
2023/04/24 08:04:08;;;;;;;0.30;0.30;;;;;;;;;;7395312;19;20253;-87
2023/04/24 08:06:35;;;;;;;0.30;0.30;;;;;;;;;;7399199;19;20140;-90
2023/04/24 08:09:01;;;;;;;0.30;0.30;;;;;;;;;;7398373;19;20133;-86
2023/04/24 08:11:28;;;;;;;0.40;0.40;;;;;;;;;;7397179;19;20137;-85
2023/04/24 08:13:57;;;;;;;0.20;0.20;;;;;;;;;;7397023;19;20193;-88
2023/04/24 08:16:24;;;;;;;0.30;0.30;;;;;;;;;;7394118;19;20129;-88
2023/04/24 08:18:54;;;;;;;0.30;0.30;;;;;;;;;;7392928;19;20159;-90
2023/04/24 08:21:26;;;;;;;0.30;0.30;;;;;;;;;;7393168;19;20144;-90
2023/04/24 08:23:59;;;;;;;0.40;0.40;;;;;;;;;;7404843;19;20161;-90
2023/04/24 08:26:39;;;;;;;0.43;0.43;;;;;;;;;;7392852;19;20155;-88
2023/04/24 08:29:10;;;;;;;0.60;0.60;;;;;;;;;;7394522;19;20129;-91
2023/04/24 08:31:39;;;;;;;0.50;0.50;;;;;;;;;;7394305;19;20623;-90
2023/04/24 08:34:06;;;;;;;0.40;0.40;;;;;;;;;;7395228;19;20161;-84
2023/04/24 08:36:33;;;;;;;1.07;0.57;;;;;;;;;;7395263;19;20137;-86
2023/04/24 08:39:12;;;;;;;0.40;0.40;;;;;;;;;;7391046;19;20545;-84
2023/04/24 08:41:39;;;;;;;0.90;0.90;;;;;;;;;;7390598;19;20602;-86
2023/04/24 08:44:06;;;;;;;0.50;0.50;;;;;;;;;;7396301;19;20160;-83
2023/04/24 08:46:36;;;;;;;0.70;0.70;;;;;;;;;;7396365;19;20156;-85
2023/04/24 08:49:04;;;;;;;0.50;0.50;;;;;;;;;;7397505;19;20137;-82
2023/04/24 08:51:31;;;;;;;0.37;0.37;;;;;;;;;;7396231;19;20595;-85
2023/04/24 08:53:58;;;;;;;0.53;0.53;;;;;;;;;;7395200;19;20602;-85
2023/04/24 08:56:24;;;;;;;0.20;0.20;;;;;;;;;;7394724;19;20148;-86
2023/04/24 08:58:53;;;;;;;0.53;0.53;;;;;;;;;;7398429;19;20137;-86
2023/04/24 09:01:20;;;;;;;1.23;0.50;;;;;;;;;;7396263;19;20137;-84
2023/04/24 09:03:51;;;;;;;0.77;0.77;;;;;;;;;;7394975;19;20189;-85
2023/04/24 09:06:19;;;;;;;0.40;0.40;;;;;;;;;;7399108;19;20146;-84
2023/04/24 09:08:47;;;;;;;0.30;0.30;;;;;;;;;;7399376;19;20713;-88
2023/04/24 09:11:13;;;;;;;0.40;0.40;;;;;;;;;;7396810;19;20129;-87
2023/04/24 09:13:40;;;;;;;0.30;0.30;;;;;;;;;;7391774;19;20193;-86
2023/04/24 09:16:07;;;;;;;0.50;0.50;;;;;;;;;;7399853;19;20121;-87
2023/04/24 09:18:35;;;;;;;0.30;0.30;;;;;;;;;;7399231;19;20133;-87
2023/04/24 09:21:05;;;;;;;0.50;0.50;;;;;;;;;;7398786;19;20137;-87
2023/04/24 09:23:32;;;;;;;0.83;0.83;;;;;;;;;;7397764;19;20176;-87
2023/04/24 09:26:00;;;;;;;0.30;0.30;;;;;;;;;;7396192;19;20165;-87
2023/04/24 09:28:37;;;;;;;0.30;0.30;;;;;;;;;;7397367;19;20146;-86
2023/04/24 09:31:12;;;;;;;0.47;0.47;;;;;;;;;;7397081;19;20140;-86
2023/04/24 09:33:39;;;;;;;0.37;0.37;;;;;;;;;;7396560;19;20147;-87
2023/04/24 09:36:06;;;;;;;0.40;0.40;;;;;;;;;;7395204;19;20129;-89
2023/04/24 09:38:37;;;;;;;0.30;0.30;;;;;;;;;;7394582;19;20137;-88
2023/04/24 09:41:08;;;;;;;0.70;0.70;;;;;;;;;;7395302;19;20137;-87
2023/04/24 09:43:35;;;;;;;1.70;1.00;;;;;;;;;;7392293;19;20149;-88
2023/04/24 09:46:07;;;;;;;0.50;0.50;;;;;;;;;;7397022;19;20200;-87
2023/04/24 09:48:35;;;;;;;0.30;0.30;;;;;;;;;;7396063;19;20212;-87
2023/04/24 09:51:03;;;;;;;0.93;0.50;;;;;;;;;;7395636;19;20516;-86
2023/04/24 09:53:30;;;;;;;0.60;0.60;;;;;;;;;;7395368;19;20166;-88
2023/04/24 09:56:07;;;;;;;0.60;0.60;;;;;;;;;;7392083;19;20137;-86
2023/04/24 09:58:35;;;;;;;0.43;0.43;;;;;;;;;;7398178;19;20139;-87
2023/04/24 10:01:02;;;;;;;0.30;0.30;;;;;;;;;;7395820;19;20141;-87
2023/04/24 10:03:33;;;;;;;0.30;0.30;;;;;;;;;;7396660;19;20140;-87
2023/04/24 10:06:08;;;;;;;0.27;0.27;;;;;;;;;;7393061;19;20240;-85
2023/04/24 10:08:36;;;;;;;0.57;0.57;;;;;;;;;;7395171;19;20151;-85
2023/04/24 10:11:03;;;;;;;0.30;0.30;;;;;;;;;;7397007;19;20129;-87
2023/04/24 10:13:30;;;;;;;0.30;0.30;;;;;;;;;;7394125;19;20163;-88
2023/04/24 10:15:59;;;;;;;0.30;0.30;;;;;;;;;;7391719;19;20141;-86
2023/04/24 10:18:27;;;;;;;0.57;0.57;;;;;;;;;;7393621;19;20197;-85
2023/04/24 10:20:54;;;;;;;0.30;0.30;;;;;;;;;;7392048;19;20153;-89
2023/04/24 10:23:22;;;;;;;0.40;0.40;;;;;;;;;;7395819;19;20168;-85
2023/04/24 10:25:50;;;;;;;0.30;0.30;;;;;;;;;;7400394;19;20144;-85
2023/04/24 10:28:19;;;;;;;0.30;0.30;;;;;;;;;;7394964;19;20141;-86
2023/04/24 10:30:46;;;;;;;0.30;0.30;;;;;;;;;;7396376;19;20165;-87
2023/04/24 10:33:13;;;;;;;1.13;1.13;;;;;;;;;;7390893;19;20173;-85
2023/04/24 10:35:45;;;;;;;0.30;0.30;;;;;;;;;;7391721;19;20161;-88
2023/04/24 10:38:13;;;;;;;0.50;0.50;;;;;;;;;;7388243;19;20141;-88
2023/04/24 10:40:42;;;;;;;0.30;0.30;;;;;;;;;;7384319;19;20534;-86
2023/04/24 10:43:11;;;;;;;0.30;0.30;;;;;;;;;;7388837;19;20157;-85
2023/04/24 10:45:38;;;;;;;0.40;0.40;;;;;;;;;;7389162;19;20645;-84
2023/04/24 10:48:10;;;;;;;0.83;0.83;;;;;;;;;;7391414;19;20137;-84
2023/04/24 10:50:51;;;;;;;0.40;0.40;;;;;;;;;;7390945;19;20125;-85
2023/04/24 10:53:20;;;;;;;0.87;0.70;;;;;;;;;;7398468;19;20141;-85
2023/04/24 10:56:07;;;;;;;0.30;0.30;;;;;;;;;;7394378;19;20149;-86
2023/04/24 10:58:45;;;;;;;0.30;0.30;;;;;;;;;;7395207;19;20146;-86
2023/04/24 11:01:26;;;;;;;0.40;0.40;;;;;;;;;;7395986;19;20151;-85
2023/04/24 11:04:02;;;;;;;0.32;0.32;;;;;;;;;;7396497;19;20172;-85
2023/04/24 11:06:34;;;;;;;0.35;0.35;;;;;;;;;;7395282;19;20161;-85
2023/04/24 11:09:09;;;;;;;0.30;0.30;;;;;;;;;;7398696;19;20143;-85
2023/04/24 11:11:37;;;;;;;0.40;0.40;;;;;;;;;;7400545;19;20163;-84
2023/04/24 11:14:06;;;;;;;0.32;0.32;;;;;;;;;;7396471;19;20653;-84
2023/04/24 11:16:44;;;;;;;0.77;0.77;;;;;;;;;;7398935;19;20133;-86
2023/04/24 11:19:17;;;;;;;0.43;0.43;;;;;;;;;;7397251;19;20146;-84
2023/04/24 11:22:01;;;;;;;0.50;0.50;;;;;;;;;;7398825;19;20137;-84
2023/04/24 11:24:50;;;;;;;0.73;0.73;;;;;;;;;;7395844;19;20152;-84
2023/04/24 11:27:22;;;;;;;0.60;0.60;;;;;;;;;;7398820;19;20665;-84
2023/04/24 11:30:00;;;;;;;0.50;0.50;;;;;;;;;;7398830;19;20191;-84
2023/04/24 11:32:38;;;;;;;2.47;0.70;;;;;;;;;;7397096;19;20125;-84
2023/04/24 11:35:06;;;;;;;0.40;0.40;;;;;;;;;;7393662;19;20155;-85
2023/04/24 11:37:38;;;;;;;0.40;0.40;;;;;;;;;;7396877;19;20137;-86
2023/04/24 11:40:07;;;;;;;0.40;0.40;;;;;;;;;;7398257;19;20143;-84
2023/04/24 11:42:35;;;;;;;0.50;0.50;;;;;;;;;;7397450;19;20581;-84
2023/04/24 11:45:07;;;;;;;0.45;0.45;;;;;;;;;;7396296;19;20169;-85
2023/04/24 11:47:34;;;;;;;0.30;0.30;;;;;;;;;;7395167;19;20133;-84
2023/04/24 11:50:02;;;;;;;0.30;0.30;;;;;;;;;;7397936;19;20136;-85
2023/04/24 11:52:30;;;;;;;0.40;0.40;;;;;;;;;;7396464;19;20129;-84
2023/04/24 11:54:56;;;;;;;0.30;0.30;;;;;;;;;;7393982;19;20173;-84
2023/04/24 11:57:26;;;;;;;0.30;0.30;;;;;;;;;;7395524;19;20166;-84
2023/04/24 11:59:52;;;;;;;0.40;0.40;;;;;;;;;;7398306;19;20125;-84
2023/04/24 12:02:26;;;;;;;0.60;0.60;;;;;;;;;;7394037;19;20509;-85
2023/04/24 12:04:54;;;;;;;0.52;0.52;;;;;;;;;;7392927;19;20168;-84
2023/04/24 12:07:22;;;;;;;0.50;0.50;;;;;;;;;;7398786;19;20201;-85
2023/04/24 12:09:55;;;;;;;0.57;0.57;;;;;;;;;;7396198;19;20622;-84
2023/04/24 12:12:25;;;;;;;0.60;0.60;;;;;;;;;;7402244;19;20129;-84
2023/04/24 12:14:56;;;;;;;0.50;0.50;;;;;;;;;;7394630;19;20166;-85
2023/04/24 12:17:25;;;;;;;0.47;0.40;;;;;;;;;;7397080;19;20129;-85
2023/04/24 12:20:00;;;;;;;0.57;0.57;;;;;;;;;;7393756;19;20133;-85
2023/04/24 12:22:27;;;;;;;0.40;0.40;;;;;;;;;;7410254;19;20133;-85
2023/04/24 12:25:05;;;;;;;0.70;0.70;;;;;;;;;;7403976;19;20169;-86
2023/04/24 12:27:35;;;;;;;0.50;0.50;;;;;;;;;;7425127;19;20125;-87
2023/04/24 12:30:04;;;;;;;0.40;0.40;;;;;;;;;;7424135;19;20130;-87
2023/04/24 12:32:31;;;;;;;0.30;0.30;;;;;;;;;;7424115;19;20154;-88
2023/04/24 12:34:58;;;;;;;0.50;0.50;;;;;;;;;;7422922;19;20147;-87
2023/04/24 12:37:26;;;;;;;0.40;0.40;;;;;;;;;;7425381;19;20133;-87
2023/04/24 12:40:09;;;;;;;0.38;0.38;;;;;;;;;;7420324;19;20133;-87
2023/04/24 12:42:42;;;;;;;0.40;0.40;;;;;;;;;;7403860;19;20133;-85
2023/04/24 12:45:09;;;;;;;0.80;0.57;;;;;;;;;;7392023;19;20161;-84
2023/04/24 12:47:36;;;;;;;0.60;0.60;;;;;;;;;;7397668;19;20137;-87
2023/04/24 12:50:03;;;;;;;0.40;0.40;;;;;;;;;;7398219;19;20523;-85
2023/04/24 12:52:30;;;;;;;0.40;0.40;;;;;;;;;;7396996;19;20148;-85
2023/04/24 12:54:58;;;;;;;0.50;0.50;;;;;;;;;;7396326;19;20149;-85
2023/04/24 12:57:25;;;;;;;0.50;0.50;;;;;;;;;;7394060;19;20154;-85
2023/04/24 12:59:55;;;;;;;0.30;0.30;;;;;;;;;;7394574;19;20129;-85
2023/04/24 13:02:22;;;;;;;0.38;0.38;;;;;;;;;;7396633;19;20145;-85
2023/04/24 13:04:50;;;;;;;0.35;0.35;;;;;;;;;;7392974;19;20145;-85
2023/04/24 13:07:17;;;;;;;0.32;0.32;;;;;;;;;;7396719;19;20137;-85
2023/04/24 13:09:44;;;;;;;0.40;0.40;;;;;;;;;;7395858;19;20140;-85
2023/04/24 13:12:11;;;;;;;0.43;0.43;;;;;;;;;;7396700;19;20158;-85
2023/04/24 13:14:38;;;;;;;0.30;0.30;;;;;;;;;;7392723;19;20669;-85
2023/04/24 13:17:05;;;;;;;0.55;0.50;;;;;;;;;;7393951;19;20169;-85
2023/04/24 13:19:42;;;;;;;0.40;0.40;;;;;;;;;;7392184;19;20141;-86
2023/04/24 13:22:12;;;;;;;0.40;0.40;;;;;;;;;;7396859;19;20149;-85
2023/04/24 13:24:42;;;;;;;0.73;0.60;;;;;;;;;;7393844;19;20157;-85
2023/04/24 13:27:09;;;;;;;0.30;0.30;;;;;;;;;;7393038;19;20129;-85
2023/04/24 13:29:36;;;;;;;0.85;0.85;;;;;;;;;;7392662;19;20149;-84
2023/04/24 13:32:03;;;;;;;0.40;0.40;;;;;;;;;;7392671;19;20161;-85
2023/04/24 13:34:30;;;;;;;0.30;0.30;;;;;;;;;;7392098;19;20172;-86
2023/04/24 13:36:58;;;;;;;0.30;0.30;;;;;;;;;;7395039;19;20129;-85
2023/04/24 13:39:25;;;;;;;0.52;0.52;;;;;;;;;;7393705;19;20136;-85
2023/04/24 13:41:53;;;;;;;0.30;0.30;;;;;;;;;;7393930;19;20158;-85
2023/04/24 13:44:21;;;;;;;0.30;0.30;;;;;;;;;;7391086;19;20430;-85
2023/04/24 13:46:50;;;;;;;0.60;0.60;;;;;;;;;;7393463;19;20136;-86
2023/04/24 13:49:16;;;;;;;0.57;0.57;;;;;;;;;;7392576;19;20125;-85
2023/04/24 13:51:43;;;;;;;0.43;0.43;;;;;;;;;;7395487;19;20136;-86
2023/04/24 13:54:09;;;;;;;0.40;0.40;;;;;;;;;;7390771;19;20627;-85
2023/04/24 13:56:36;;;;;;;0.40;0.40;;;;;;;;;;7391864;19;20165;-85
2023/04/24 13:59:03;;;;;;;0.43;0.43;;;;;;;;;;7393148;19;20133;-86
2023/04/24 14:01:29;;;;;;;0.40;0.40;;;;;;;;;;7388964;19;20162;-86
2023/04/24 14:03:56;;;;;;;0.55;0.55;;;;;;;;;;7387452;19;20181;-85
2023/04/24 14:06:23;;;;;;;0.80;0.73;;;;;;;;;;7393035;19;20158;-85
2023/04/24 14:08:50;;;;;;;0.50;0.50;;;;;;;;;;7388962;19;20145;-85
2023/04/24 14:11:17;;;;;;;0.40;0.40;;;;;;;;;;7389492;19;20137;-84
2023/04/24 14:13:44;;;;;;;0.50;0.50;;;;;;;;;;7389537;19;20160;-85
2023/04/24 14:16:12;;;;;;;0.65;0.65;;;;;;;;;;7390214;19;20140;-85
2023/04/24 14:18:39;;;;;;;0.68;0.55;;;;;;;;;;7393063;19;20145;-85
2023/04/24 14:21:06;;;;;;;0.50;0.50;;;;;;;;;;7402095;19;20505;-85
2023/04/24 14:23:33;;;;;;;0.57;0.57;;;;;;;;;;7394549;19;20168;-86
2023/04/24 14:26:00;;;;;;;0.68;0.68;;;;;;;;;;7389958;19;20193;-86
2023/04/24 14:28:26;;;;;;;0.47;0.47;;;;;;;;;;7391736;19;20141;-85
2023/04/24 14:30:53;;;;;;;0.30;0.30;;;;;;;;;;7395332;19;20136;-85
2023/04/24 14:33:20;;;;;;;0.68;0.68;;;;;;;;;;7397540;19;20192;-85
2023/04/24 14:35:47;;;;;;;0.40;0.40;;;;;;;;;;7396490;19;20117;-84
2023/04/24 14:38:15;;;;;;;0.50;0.50;;;;;;;;;;7397863;19;20161;-84
2023/04/24 14:40:42;;;;;;;0.40;0.40;;;;;;;;;;7399019;19;20137;-85
2023/04/24 14:43:11;;;;;;;0.60;0.60;;;;;;;;;;7396651;19;20498;-85
2023/04/24 14:45:38;;;;;;;0.40;0.40;;;;;;;;;;7398849;19;20153;-85
2023/04/24 14:48:05;;;;;;;0.57;0.57;;;;;;;;;;7400648;19;20188;-84